sensor_id;sensor_type;location;lat;lon;timestamp;pressure;altitude;pressure_sealevel;temperature;humidity
65546;BME280;52177;55.968;37.498;2023-02-03T00:00:28;98957.97;;;-0.38;75.54
65546;BME280;52177;55.968;37.498;2023-02-03T00:01:00;98965.00;;;-0.38;75.41
65546;BME280;52177;55.968;37.498;2023-02-03T00:01:31;98956.22;;;-0.37;75.51
65546;BME280;52177;55.968;37.498;2023-02-03T00:02:01;98958.13;;;-0.39;75.47
65546;BME280;52177;55.968;37.498;2023-02-03T00:02:31;98954.66;;;-0.40;75.44
65546;BME280;52177;55.968;37.498;2023-02-03T00:03:02;98961.69;;;-0.40;75.60
65546;BME280;52177;55.968;37.498;2023-02-03T00:03:32;98955.72;;;-0.43;75.61
65546;BME280;52177;55.968;37.498;2023-02-03T00:04:03;98956.69;;;-0.44;75.65
65546;BME280;52177;55.968;37.498;2023-02-03T00:04:33;98964.66;;;-0.45;75.71
65546;BME280;52177;55.968;37.498;2023-02-03T00:05:03;98960.50;;;-0.48;75.80
65546;BME280;52177;55.968;37.498;2023-02-03T00:05:34;98963.97;;;-0.47;75.76
65546;BME280;52177;55.968;37.498;2023-02-03T00:06:06;98959.59;;;-0.47;75.86
65546;BME280;52177;55.968;37.498;2023-02-03T00:06:37;98962.19;;;-0.47;75.75
65546;BME280;52177;55.968;37.498;2023-02-03T00:07:09;98956.09;;;-0.47;75.80
65546;BME280;52177;55.968;37.498;2023-02-03T00:07:41;98960.25;;;-0.45;75.81
65546;BME280;52177;55.968;37.498;2023-02-03T00:08:14;98961.22;;;-0.46;75.77
65546;BME280;52177;55.968;37.498;2023-02-03T00:08:45;98963.84;;;-0.46;75.63
65546;BME280;52177;55.968;37.498;2023-02-03T00:09:15;98956.00;;;-0.46;75.67
65546;BME280;52177;55.968;37.498;2023-02-03T00:09:46;98955.03;;;-0.45;75.71
65546;BME280;52177;55.968;37.498;2023-02-03T00:10:17;98958.50;;;-0.44;75.84
65546;BME280;52177;55.968;37.498;2023-02-03T00:10:50;98960.25;;;-0.45;75.85
65546;BME280;52177;55.968;37.498;2023-02-03T00:11:21;98956.81;;;-0.45;75.82
65546;BME280;52177;55.968;37.498;2023-02-03T00:11:51;98961.22;;;-0.46;75.91
65546;BME280;52177;55.968;37.498;2023-02-03T00:12:22;98957.63;;;-0.45;75.99
65546;BME280;52177;55.968;37.498;2023-02-03T00:12:53;98961.13;;;-0.44;75.86
65546;BME280;52177;55.968;37.498;2023-02-03T00:13:23;98956.81;;;-0.45;75.89
65546;BME280;52177;55.968;37.498;2023-02-03T00:13:55;98966.34;;;-0.44;75.82
65546;BME280;52177;55.968;37.498;2023-02-03T00:14:26;98959.31;;;-0.44;75.86
65546;BME280;52177;55.968;37.498;2023-02-03T00:14:56;98957.53;;;-0.43;75.97
65546;BME280;52177;55.968;37.498;2023-02-03T00:15:26;98959.22;;;-0.42;75.75
65546;BME280;52177;55.968;37.498;2023-02-03T00:15:57;98956.59;;;-0.42;75.71
65546;BME280;52177;55.968;37.498;2023-02-03T00:16:27;98959.06;;;-0.40;75.78
65546;BME280;52177;55.968;37.498;2023-02-03T00:16:58;98961.81;;;-0.42;75.67
65546;BME280;52177;55.968;37.498;2023-02-03T00:17:28;98960.16;;;-0.43;75.68
65546;BME280;52177;55.968;37.498;2023-02-03T00:17:59;98954.91;;;-0.43;75.92
65546;BME280;52177;55.968;37.498;2023-02-03T00:18:29;98961.13;;;-0.44;75.83
65546;BME280;52177;55.968;37.498;2023-02-03T00:18:59;98963.84;;;-0.46;75.79
65546;BME280;52177;55.968;37.498;2023-02-03T00:19:30;98963.84;;;-0.46;75.87
65546;BME280;52177;55.968;37.498;2023-02-03T00:20:00;98954.19;;;-0.45;75.86
65546;BME280;52177;55.968;37.498;2023-02-03T00:20:31;98963.72;;;-0.44;75.78
65546;BME280;52177;55.968;37.498;2023-02-03T00:21:01;98952.41;;;-0.45;75.75
65546;BME280;52177;55.968;37.498;2023-02-03T00:21:32;98958.59;;;-0.46;75.79
65546;BME280;52177;55.968;37.498;2023-02-03T00:22:02;98956.81;;;-0.45;75.81
65546;BME280;52177;55.968;37.498;2023-02-03T00:22:32;98956.97;;;-0.47;75.73
65546;BME280;52177;55.968;37.498;2023-02-03T00:23:05;98963.13;;;-0.48;75.80
65546;BME280;52177;55.968;37.498;2023-02-03T00:23:35;98958.88;;;-0.49;75.96
65546;BME280;52177;55.968;37.498;2023-02-03T00:24:06;98958.03;;;-0.49;75.87
65546;BME280;52177;55.968;37.498;2023-02-03T00:24:36;98952.66;;;-0.48;75.96
65546;BME280;52177;55.968;37.498;2023-02-03T00:25:07;98956.09;;;-0.47;75.97
65546;BME280;52177;55.968;37.498;2023-02-03T00:25:39;98954.34;;;-0.47;75.92
65546;BME280;52177;55.968;37.498;2023-02-03T00:26:13;98951.72;;;-0.47;76.07
65546;BME280;52177;55.968;37.498;2023-02-03T00:26:43;98956.97;;;-0.47;75.98
65546;BME280;52177;55.968;37.498;2023-02-03T00:27:14;98951.72;;;-0.47;75.96
65546;BME280;52177;55.968;37.498;2023-02-03T00:27:44;98954.34;;;-0.47;75.99
65546;BME280;52177;55.968;37.498;2023-02-03T00:28:14;98956.00;;;-0.46;75.92
65546;BME280;52177;55.968;37.498;2023-02-03T00:28:45;98963.84;;;-0.46;75.97
65546;BME280;52177;55.968;37.498;2023-02-03T00:29:15;98954.34;;;-0.47;75.88
65546;BME280;52177;55.968;37.498;2023-02-03T00:29:47;98958.59;;;-0.46;76.05
65546;BME280;52177;55.968;37.498;2023-02-03T00:30:18;98961.13;;;-0.44;76.02
65546;BME280;52177;55.968;37.498;2023-02-03T00:30:48;98961.13;;;-0.44;75.95
65546;BME280;52177;55.968;37.498;2023-02-03T00:31:21;98961.94;;;-0.44;75.76
65546;BME280;52177;55.968;37.498;2023-02-03T00:31:52;98959.31;;;-0.44;75.77
65546;BME280;52177;55.968;37.498;2023-02-03T00:32:23;98965.38;;;-0.43;75.85
65546;BME280;52177;55.968;37.498;2023-02-03T00:32:53;98963.72;;;-0.44;75.83
65546;BME280;52177;55.968;37.498;2023-02-03T00:33:23;98966.19;;;-0.43;75.89
65546;BME280;52177;55.968;37.498;2023-02-03T00:33:55;98960.25;;;-0.45;75.72
65546;BME280;52177;55.968;37.498;2023-02-03T00:34:28;98965.75;;;-0.48;75.77
65546;BME280;52177;55.968;37.498;2023-02-03T00:34:59;98966.47;;;-0.46;75.86
65546;BME280;52177;55.968;37.498;2023-02-03T00:35:29;98962.19;;;-0.47;75.83
65546;BME280;52177;55.968;37.498;2023-02-03T00:36:04;98958.72;;;-0.47;75.92
65546;BME280;52177;55.968;37.498;2023-02-03T00:36:35;98966.56;;;-0.47;75.85
65546;BME280;52177;55.968;37.498;2023-02-03T00:37:05;98961.34;;;-0.47;75.87
65546;BME280;52177;55.968;37.498;2023-02-03T00:37:35;98960.50;;;-0.48;76.03
65546;BME280;52177;55.968;37.498;2023-02-03T00:38:06;98964.09;;;-0.49;75.98
65546;BME280;52177;55.968;37.498;2023-02-03T00:38:36;98964.22;;;-0.50;76.11
65546;BME280;52177;55.968;37.498;2023-02-03T00:39:06;98965.19;;;-0.51;76.18
65546;BME280;52177;55.968;37.498;2023-02-03T00:39:37;98963.41;;;-0.51;76.17
65546;BME280;52177;55.968;37.498;2023-02-03T00:40:08;98965.03;;;-0.50;76.18
65546;BME280;52177;55.968;37.498;2023-02-03T00:40:39;98965.03;;;-0.50;76.26
65546;BME280;52177;55.968;37.498;2023-02-03T00:41:09;98963.28;;;-0.49;76.15
65546;BME280;52177;55.968;37.498;2023-02-03T00:41:39;98969.34;;;-0.49;76.11
65546;BME280;52177;55.968;37.498;2023-02-03T00:42:10;98964.09;;;-0.49;76.11
65546;BME280;52177;55.968;37.498;2023-02-03T00:42:40;98960.50;;;-0.48;76.11
65546;BME280;52177;55.968;37.498;2023-02-03T00:43:11;98962.88;;;-0.45;75.99
65546;BME280;52177;55.968;37.498;2023-02-03T00:43:41;98962.06;;;-0.45;76.07
65546;BME280;52177;55.968;37.498;2023-02-03T00:44:13;98956.00;;;-0.46;76.11
65546;BME280;52177;55.968;37.498;2023-02-03T00:44:43;98966.19;;;-0.43;75.97
65546;BME280;52177;55.968;37.498;2023-02-03T00:45:14;98958.50;;;-0.44;76.11
65546;BME280;52177;55.968;37.498;2023-02-03T00:45:44;98955.88;;;-0.44;76.06
65546;BME280;52177;55.968;37.498;2023-02-03T00:46:15;98955.88;;;-0.44;76.08
65546;BME280;52177;55.968;37.498;2023-02-03T00:46:45;98956.81;;;-0.45;76.02
65546;BME280;52177;55.968;37.498;2023-02-03T00:47:16;98958.59;;;-0.46;76.07
65546;BME280;52177;55.968;37.498;2023-02-03T00:47:46;98966.56;;;-0.47;76.11
65546;BME280;52177;55.968;37.498;2023-02-03T00:48:16;98957.91;;;-0.48;76.06
65546;BME280;52177;55.968;37.498;2023-02-03T00:48:47;98963.84;;;-0.46;76.20
65546;BME280;52177;55.968;37.498;2023-02-03T00:49:17;98961.22;;;-0.46;76.15
65546;BME280;52177;55.968;37.498;2023-02-03T00:49:47;98955.88;;;-0.44;76.15
65546;BME280;52177;55.968;37.498;2023-02-03T00:50:19;98958.50;;;-0.44;76.06
65546;BME280;52177;55.968;37.498;2023-02-03T00:50:49;98962.75;;;-0.43;76.20
65546;BME280;52177;55.968;37.498;2023-02-03T00:51:20;98956.59;;;-0.42;76.04
65546;BME280;52177;55.968;37.498;2023-02-03T00:51:50;98951.47;;;-0.44;76.12
65546;BME280;52177;55.968;37.498;2023-02-03T00:52:21;98953.13;;;-0.43;76.10
65546;BME280;52177;55.968;37.498;2023-02-03T00:52:51;98952.28;;;-0.43;76.01
65546;BME280;52177;55.968;37.498;2023-02-03T00:53:21;98957.53;;;-0.43;76.05
65546;BME280;52177;55.968;37.498;2023-02-03T00:53:52;98962.88;;;-0.45;76.05
65546;BME280;52177;55.968;37.498;2023-02-03T00:54:22;98949.78;;;-0.45;76.09
65546;BME280;52177;55.968;37.498;2023-02-03T00:54:52;98954.19;;;-0.45;76.14
65546;BME280;52177;55.968;37.498;2023-02-03T00:55:23;98961.34;;;-0.47;76.10
65546;BME280;52177;55.968;37.498;2023-02-03T00:55:53;98961.22;;;-0.46;76.22
65546;BME280;52177;55.968;37.498;2023-02-03T00:56:23;98959.59;;;-0.47;76.13
65546;BME280;52177;55.968;37.498;2023-02-03T00:56:54;98959.59;;;-0.47;76.32
65546;BME280;52177;55.968;37.498;2023-02-03T00:57:24;98952.66;;;-0.48;76.25
65546;BME280;52177;55.968;37.498;2023-02-03T00:57:54;98959.69;;;-0.48;76.17
65546;BME280;52177;55.968;37.498;2023-02-03T00:58:25;98959.81;;;-0.50;76.20
65546;BME280;52177;55.968;37.498;2023-02-03T00:58:55;98957.19;;;-0.50;76.47
65546;BME280;52177;55.968;37.498;2023-02-03T00:59:25;98959.69;;;-0.48;76.39
65546;BME280;52177;55.968;37.498;2023-02-03T00:59:56;98964.94;;;-0.48;76.32
65546;BME280;52177;55.968;37.498;2023-02-03T01:00:27;98961.34;;;-0.47;76.38
65546;BME280;52177;55.968;37.498;2023-02-03T01:00:57;98958.03;;;-0.49;76.40
65546;BME280;52177;55.968;37.498;2023-02-03T01:01:27;98958.88;;;-0.49;76.32
65546;BME280;52177;55.968;37.498;2023-02-03T01:01:58;98954.56;;;-0.50;76.35
65546;BME280;52177;55.968;37.498;2023-02-03T01:02:28;98955.53;;;-0.51;76.45
65546;BME280;52177;55.968;37.498;2023-02-03T01:02:58;98953.75;;;-0.50;76.40
65546;BME280;52177;55.968;37.498;2023-02-03T01:03:29;98959.81;;;-0.50;76.51
65546;BME280;52177;55.968;37.498;2023-02-03T01:03:59;98951.94;;;-0.50;76.38
65546;BME280;52177;55.968;37.498;2023-02-03T01:04:30;98954.56;;;-0.50;76.40
65546;BME280;52177;55.968;37.498;2023-02-03T01:05:00;98957.19;;;-0.50;76.35
65546;BME280;52177;55.968;37.498;2023-02-03T01:05:30;98955.53;;;-0.51;76.50
65546;BME280;52177;55.968;37.498;2023-02-03T01:06:16;98959.94;;;-0.51;76.47
65546;BME280;52177;55.968;37.498;2023-02-03T01:06:47;98959.81;;;-0.50;76.40
65546;BME280;52177;55.968;37.498;2023-02-03T01:07:17;98959.69;;;-0.48;76.58
65546;BME280;52177;55.968;37.498;2023-02-03T01:07:48;98958.03;;;-0.49;76.62
65546;BME280;52177;55.968;37.498;2023-02-03T01:08:18;98956.25;;;-0.49;76.67
65546;BME280;52177;55.968;37.498;2023-02-03T01:08:49;98959.59;;;-0.47;76.53
65546;BME280;52177;55.968;37.498;2023-02-03T01:09:19;98955.16;;;-0.46;76.63
65546;BME280;52177;55.968;37.498;2023-02-03T01:09:50;98953.25;;;-0.44;76.59
65546;BME280;52177;55.968;37.498;2023-02-03T01:10:20;98952.41;;;-0.45;76.50
65546;BME280;52177;55.968;37.498;2023-02-03T01:10:50;98955.88;;;-0.44;76.47
65546;BME280;52177;55.968;37.498;2023-02-03T01:11:25;98949.56;;;-0.41;76.47
65546;BME280;52177;55.968;37.498;2023-02-03T01:11:56;98952.28;;;-0.43;76.32
65546;BME280;52177;55.968;37.498;2023-02-03T01:12:30;98947.16;;;-0.45;76.46
65546;BME280;52177;55.968;37.498;2023-02-03T01:13:00;98949.78;;;-0.45;76.36
65546;BME280;52177;55.968;37.498;2023-02-03T01:13:30;98948.13;;;-0.46;76.30
65546;BME280;52177;55.968;37.498;2023-02-03T01:14:01;98949.78;;;-0.45;76.38
65546;BME280;52177;55.968;37.498;2023-02-03T01:14:31;98950.75;;;-0.46;76.47
65546;BME280;52177;55.968;37.498;2023-02-03T01:15:02;98943.72;;;-0.45;76.29
65546;BME280;52177;55.968;37.498;2023-02-03T01:15:32;98946.22;;;-0.44;76.40
65546;BME280;52177;55.968;37.498;2023-02-03T01:16:06;98944.56;;;-0.45;76.47
65546;BME280;52177;55.968;37.498;2023-02-03T01:16:36;98947.16;;;-0.45;76.43
65546;BME280;52177;55.968;37.498;2023-02-03T01:17:07;98945.41;;;-0.44;76.26
65546;BME280;52177;55.968;37.498;2023-02-03T01:17:38;98944.69;;;-0.46;76.31
65546;BME280;52177;55.968;37.498;2023-02-03T01:18:08;98945.63;;;-0.47;76.27
65546;BME280;52177;55.968;37.498;2023-02-03T01:18:39;98945.63;;;-0.47;76.35
65546;BME280;52177;55.968;37.498;2023-02-03T01:19:09;98942.34;;;-0.49;76.42
65546;BME280;52177;55.968;37.498;2023-02-03T01:19:40;98948.50;;;-0.50;76.34
65546;BME280;52177;55.968;37.498;2023-02-03T01:20:10;98943.28;;;-0.50;76.49
65546;BME280;52177;55.968;37.498;2023-02-03T01:20:45;98946.72;;;-0.50;76.60
65546;BME280;52177;55.968;37.498;2023-02-03T01:21:18;98939.00;;;-0.51;76.39
65546;BME280;52177;55.968;37.498;2023-02-03T01:21:49;98938.16;;;-0.52;76.39
65546;BME280;52177;55.968;37.498;2023-02-03T01:22:20;98939.13;;;-0.53;76.60
65546;BME280;52177;55.968;37.498;2023-02-03T01:22:50;98944.47;;;-0.54;76.50
65546;BME280;52177;55.968;37.498;2023-02-03T01:23:20;98949.72;;;-0.54;76.63
65546;BME280;52177;55.968;37.498;2023-02-03T01:23:51;98946.16;;;-0.53;76.69
65546;BME280;52177;55.968;37.498;2023-02-03T01:24:22;98940.19;;;-0.55;76.71
65546;BME280;52177;55.968;37.498;2023-02-03T01:24:52;98939.38;;;-0.56;76.70
65546;BME280;52177;55.968;37.498;2023-02-03T01:25:23;98945.44;;;-0.55;76.67
65546;BME280;52177;55.968;37.498;2023-02-03T01:25:53;98947.81;;;-0.52;76.66
65546;BME280;52177;55.968;37.498;2023-02-03T01:26:23;98944.34;;;-0.53;76.80
65546;BME280;52177;55.968;37.498;2023-02-03T01:26:54;98945.19;;;-0.52;76.75
65546;BME280;52177;55.968;37.498;2023-02-03T01:27:24;98944.25;;;-0.51;76.79
65546;BME280;52177;55.968;37.498;2023-02-03T01:27:54;98946.72;;;-0.50;76.77
65546;BME280;52177;55.968;37.498;2023-02-03T01:28:25;98945.78;;;-0.49;76.69
65546;BME280;52177;55.968;37.498;2023-02-03T01:28:57;98947.56;;;-0.49;76.59
65546;BME280;52177;55.968;37.498;2023-02-03T01:29:27;98943.97;;;-0.48;76.55
65546;BME280;52177;55.968;37.498;2023-02-03T01:29:58;98944.09;;;-0.50;76.57
65546;BME280;52177;55.968;37.498;2023-02-03T01:30:28;98942.44;;;-0.51;76.58
65546;BME280;52177;55.968;37.498;2023-02-03T01:31:19;98945.78;;;-0.49;76.57
65546;BME280;52177;55.968;37.498;2023-02-03T01:31:49;98946.88;;;-0.51;76.55
65546;BME280;52177;55.968;37.498;2023-02-03T01:32:20;98945.31;;;-0.54;76.61
65546;BME280;52177;55.968;37.498;2023-02-03T01:32:50;98950.69;;;-0.55;76.61
65546;BME280;52177;55.968;37.498;2023-02-03T01:33:20;98949.84;;;-0.56;76.78
65546;BME280;52177;55.968;37.498;2023-02-03T01:33:54;98950.69;;;-0.55;76.80
65546;BME280;52177;55.968;37.498;2023-02-03T01:34:25;98951.63;;;-0.56;76.71
65546;BME280;52177;55.968;37.498;2023-02-03T01:34:55;98948.16;;;-0.57;76.91
65546;BME280;52177;55.968;37.498;2023-02-03T01:35:25;98948.16;;;-0.57;76.78
65546;BME280;52177;55.968;37.498;2023-02-03T01:35:59;98945.81;;;-0.60;76.79
65546;BME280;52177;55.968;37.498;2023-02-03T01:36:31;98945.00;;;-0.60;76.96
65546;BME280;52177;55.968;37.498;2023-02-03T01:37:01;98951.88;;;-0.59;77.02
65546;BME280;52177;55.968;37.498;2023-02-03T01:37:32;98947.47;;;-0.59;77.08
65546;BME280;52177;55.968;37.498;2023-02-03T01:38:02;98949.13;;;-0.58;77.04
65546;BME280;52177;55.968;37.498;2023-02-03T01:38:32;98951.88;;;-0.59;77.22
65546;BME280;52177;55.968;37.498;2023-02-03T01:39:04;98950.06;;;-0.59;77.18
65546;BME280;52177;55.968;37.498;2023-02-03T01:39:35;98949.25;;;-0.59;77.22
65546;BME280;52177;55.968;37.498;2023-02-03T01:40:05;98947.34;;;-0.57;77.34
65546;BME280;52177;55.968;37.498;2023-02-03T01:40:44;98950.78;;;-0.57;77.41
65546;BME280;52177;55.968;37.498;2023-02-03T01:41:19;98945.56;;;-0.57;77.30
65546;BME280;52177;55.968;37.498;2023-02-03T01:41:50;98951.50;;;-0.55;77.37
65546;BME280;52177;55.968;37.498;2023-02-03T01:42:21;98944.47;;;-0.54;77.27
65546;BME280;52177;55.968;37.498;2023-02-03T01:42:51;98949.59;;;-0.53;77.25
65546;BME280;52177;55.968;37.498;2023-02-03T01:43:31;98947.69;;;-0.51;77.26
65546;BME280;52177;55.968;37.498;2023-02-03T01:45:01;98951.13;;;-0.50;77.19
65546;BME280;52177;55.968;37.498;2023-02-03T01:45:31;98947.69;;;-0.51;77.13
65546;BME280;52177;55.968;37.498;2023-02-03T01:47:57;98949.34;;;-0.50;77.14
65546;BME280;52177;55.968;37.498;2023-02-03T01:48:30;98946.88;;;-0.51;76.99
65546;BME280;52177;55.968;37.498;2023-02-03T01:49:38;98954.84;;;-0.53;77.16
65546;BME280;52177;55.968;37.498;2023-02-03T01:50:22;98951.38;;;-0.53;77.13
65546;BME280;52177;55.968;37.498;2023-02-03T01:50:54;98946.16;;;-0.53;77.26
65546;BME280;52177;55.968;37.498;2023-02-03T01:51:24;98946.97;;;-0.53;77.19
65546;BME280;52177;55.968;37.498;2023-02-03T01:51:55;98943.38;;;-0.52;77.11
65546;BME280;52177;55.968;37.498;2023-02-03T01:52:26;98941.63;;;-0.51;77.14
65546;BME280;52177;55.968;37.498;2023-02-03T01:53:09;98942.44;;;-0.51;77.18
65546;BME280;52177;55.968;37.498;2023-02-03T01:53:41;98948.41;;;-0.49;77.23
65546;BME280;52177;55.968;37.498;2023-02-03T01:54:15;98952.81;;;-0.49;77.17
65546;BME280;52177;55.968;37.498;2023-02-03T01:54:47;98938.03;;;-0.50;77.12
65546;BME280;52177;55.968;37.498;2023-02-03T01:55:22;98936.25;;;-0.50;77.10
65546;BME280;52177;55.968;37.498;2023-02-03T01:55:55;98940.41;;;-0.47;77.13
65546;BME280;52177;55.968;37.498;2023-02-03T01:56:29;98943.16;;;-0.49;77.16
65546;BME280;52177;55.968;37.498;2023-02-03T01:57:09;98940.41;;;-0.47;77.15
65546;BME280;52177;55.968;37.498;2023-02-03T01:58:20;98937.22;;;-0.51;77.02
65546;BME280;52177;55.968;37.498;2023-02-03T01:58:53;98934.59;;;-0.51;77.14
65546;BME280;52177;55.968;37.498;2023-02-03T01:59:24;98941.47;;;-0.50;77.18
65546;BME280;52177;55.968;37.498;2023-02-03T01:59:56;98941.47;;;-0.50;77.17
65546;BME280;52177;55.968;37.498;2023-02-03T02:00:28;98938.88;;;-0.50;77.18
65546;BME280;52177;55.968;37.498;2023-02-03T02:00:59;98941.38;;;-0.48;77.26
65546;BME280;52177;55.968;37.498;2023-02-03T02:01:31;98934.34;;;-0.48;77.21
65546;BME280;52177;55.968;37.498;2023-02-03T02:02:02;98943.16;;;-0.49;77.34
65546;BME280;52177;55.968;37.498;2023-02-03T02:02:34;98941.38;;;-0.48;77.37
65546;BME280;52177;55.968;37.498;2023-02-03T02:03:05;98943.16;;;-0.49;77.36
65546;BME280;52177;55.968;37.498;2023-02-03T02:03:41;98941.25;;;-0.47;77.42
65546;BME280;52177;55.968;37.498;2023-02-03T02:04:14;98936.84;;;-0.46;77.35
65546;BME280;52177;55.968;37.498;2023-02-03T02:04:56;98941.25;;;-0.47;77.37
65546;BME280;52177;55.968;37.498;2023-02-03T02:05:45;98936.00;;;-0.47;77.38
65546;BME280;52177;55.968;37.498;2023-02-03T02:06:17;98937.78;;;-0.47;77.27
65546;BME280;52177;55.968;37.498;2023-02-03T02:06:47;98933.41;;;-0.47;77.28
65546;BME280;52177;55.968;37.498;2023-02-03T02:07:20;98941.09;;;-0.45;77.42
65546;BME280;52177;55.968;37.498;2023-02-03T02:07:51;98937.66;;;-0.46;77.35
65546;BME280;52177;55.968;37.498;2023-02-03T02:08:22;98936.69;;;-0.45;77.29
65546;BME280;52177;55.968;37.498;2023-02-03T02:08:53;98935.75;;;-0.44;77.28
65546;BME280;52177;55.968;37.498;2023-02-03T02:09:25;98940.28;;;-0.46;77.21
65546;BME280;52177;55.968;37.498;2023-02-03T02:09:56;98937.66;;;-0.46;77.19
65546;BME280;52177;55.968;37.498;2023-02-03T02:10:28;98933.03;;;-0.42;77.21
65546;BME280;52177;55.968;37.498;2023-02-03T02:10:59;98940.16;;;-0.44;77.33
65546;BME280;52177;55.968;37.498;2023-02-03T02:11:29;98940.16;;;-0.44;77.30
65546;BME280;52177;55.968;37.498;2023-02-03T02:12:00;98936.69;;;-0.45;77.24
65546;BME280;52177;55.968;37.498;2023-02-03T02:12:30;98936.69;;;-0.45;77.37
65546;BME280;52177;55.968;37.498;2023-02-03T02:13:02;98938.50;;;-0.45;77.42
65546;BME280;52177;55.968;37.498;2023-02-03T02:13:34;98934.94;;;-0.44;77.48
65546;BME280;52177;55.968;37.498;2023-02-03T02:14:05;98944.56;;;-0.45;77.44
65546;BME280;52177;55.968;37.498;2023-02-03T02:14:37;98932.31;;;-0.44;77.57
65546;BME280;52177;55.968;37.498;2023-02-03T02:15:08;98936.59;;;-0.43;77.45
65546;BME280;52177;55.968;37.498;2023-02-03T02:17:16;98935.88;;;-0.45;77.44
65546;BME280;52177;55.968;37.498;2023-02-03T02:22:19;98939.72;;;-0.49;77.71
65546;BME280;52177;55.968;37.498;2023-02-03T02:25:01;98935.31;;;-0.49;77.78
65546;BME280;52177;55.968;37.498;2023-02-03T02:25:55;98939.56;;;-0.48;77.75
65546;BME280;52177;55.968;37.498;2023-02-03T02:32:17;98930.06;;;-0.49;77.94
65546;BME280;52177;55.968;37.498;2023-02-03T02:33:01;98924.84;;;-0.49;78.00
65546;BME280;52177;55.968;37.498;2023-02-03T02:33:41;98932.69;;;-0.49;77.95
65546;BME280;52177;55.968;37.498;2023-02-03T02:34:21;98927.44;;;-0.49;77.96
65546;BME280;52177;55.968;37.498;2023-02-03T02:35:14;98921.50;;;-0.51;78.00
65546;BME280;52177;55.968;37.498;2023-02-03T02:35:58;98929.34;;;-0.51;78.11
65546;BME280;52177;55.968;37.498;2023-02-03T02:36:52;98935.41;;;-0.50;78.05
65546;BME280;52177;55.968;37.498;2023-02-03T02:37:51;98932.91;;;-0.52;77.97
65546;BME280;52177;55.968;37.498;2023-02-03T02:39:09;98930.19;;;-0.50;77.90
65546;BME280;52177;55.968;37.498;2023-02-03T02:39:52;98922.22;;;-0.49;77.84
65546;BME280;52177;55.968;37.498;2023-02-03T02:40:35;98918.78;;;-0.49;77.68
65546;BME280;52177;55.968;37.498;2023-02-03T02:42:01;98918.78;;;-0.49;77.86
65546;BME280;52177;55.968;37.498;2023-02-03T02:42:45;98929.47;;;-0.52;77.81
65546;BME280;52177;55.968;37.498;2023-02-03T02:43:26;98927.00;;;-0.54;77.89
65546;BME280;52177;55.968;37.498;2023-02-03T02:44:00;98925.22;;;-0.53;78.06
65546;BME280;52177;55.968;37.498;2023-02-03T02:44:38;98919.97;;;-0.53;78.05
65546;BME280;52177;55.968;37.498;2023-02-03T02:45:17;98919.00;;;-0.52;78.01
65546;BME280;52177;55.968;37.498;2023-02-03T02:45:53;98919.00;;;-0.52;77.99
65546;BME280;52177;55.968;37.498;2023-02-03T02:46:38;98922.44;;;-0.52;78.05
65546;BME280;52177;55.968;37.498;2023-02-03T02:47:19;98914.59;;;-0.52;78.13
65546;BME280;52177;55.968;37.498;2023-02-03T02:47:55;98923.31;;;-0.51;78.15
65546;BME280;52177;55.968;37.498;2023-02-03T02:50:03;98917.81;;;-0.48;78.18
65546;BME280;52177;55.968;37.498;2023-02-03T02:50:39;98923.03;;;-0.48;78.16
65546;BME280;52177;55.968;37.498;2023-02-03T02:51:13;98913.28;;;-0.46;78.24
65546;BME280;52177;55.968;37.498;2023-02-03T02:51:44;98922.94;;;-0.47;78.14
65546;BME280;52177;55.968;37.498;2023-02-03T02:52:18;98924.56;;;-0.46;78.25
65546;BME280;52177;55.968;37.498;2023-02-03T02:52:51;98925.28;;;-0.44;78.03
65546;BME280;52177;55.968;37.498;2023-02-03T02:53:25;98923.50;;;-0.43;78.09
65546;BME280;52177;55.968;37.498;2023-02-03T02:54:00;98922.56;;;-0.42;78.02
65546;BME280;52177;55.968;37.498;2023-02-03T02:54:36;98919.06;;;-0.43;77.95
65546;BME280;52177;55.968;37.498;2023-02-03T02:55:20;98922.56;;;-0.42;77.95
65546;BME280;52177;55.968;37.498;2023-02-03T02:55:54;98928.59;;;-0.41;77.99
65546;BME280;52177;55.968;37.498;2023-02-03T02:56:27;98919.78;;;-0.40;78.06
65546;BME280;52177;55.968;37.498;2023-02-03T02:57:00;98922.28;;;-0.39;78.05
65546;BME280;52177;55.968;37.498;2023-02-03T02:57:34;98922.28;;;-0.39;78.03
65546;BME280;52177;55.968;37.498;2023-02-03T02:58:09;98924.78;;;-0.37;78.01
65546;BME280;52177;55.968;37.498;2023-02-03T02:58:43;98926.44;;;-0.36;77.94
65546;BME280;52177;55.968;37.498;2023-02-03T02:59:16;98926.44;;;-0.36;77.95
65546;BME280;52177;55.968;37.498;2023-02-03T02:59:46;98922.03;;;-0.36;77.84
65546;BME280;52177;55.968;37.498;2023-02-03T03:00:17;98928.94;;;-0.35;77.83
65546;BME280;52177;55.968;37.498;2023-02-03T03:00:48;98924.66;;;-0.36;77.91
65546;BME280;52177;55.968;37.498;2023-02-03T03:01:18;98926.44;;;-0.36;77.94
65546;BME280;52177;55.968;37.498;2023-02-03T03:01:49;98921.91;;;-0.34;77.92
65546;BME280;52177;55.968;37.498;2023-02-03T03:02:20;98926.31;;;-0.35;77.96
65546;BME280;52177;55.968;37.498;2023-02-03T03:02:50;98920.22;;;-0.35;77.93
65546;BME280;52177;55.968;37.498;2023-02-03T03:03:22;98929.75;;;-0.34;77.88
65546;BME280;52177;55.968;37.498;2023-02-03T03:03:53;98927.84;;;-0.32;77.90
65546;BME280;52177;55.968;37.498;2023-02-03T03:04:26;98925.25;;;-0.32;77.93
65546;BME280;52177;55.968;37.498;2023-02-03T03:04:57;98925.34;;;-0.34;77.95
65546;BME280;52177;55.968;37.498;2023-02-03T03:05:27;98928.69;;;-0.32;77.96
65546;BME280;52177;55.968;37.498;2023-02-03T03:06:32;98921.91;;;-0.34;78.05
65546;BME280;52177;55.968;37.498;2023-02-03T03:07:13;98925.25;;;-0.32;77.99
65546;BME280;52177;55.968;37.498;2023-02-03T03:08:04;98921.53;;;-0.30;77.95
65546;BME280;52177;55.968;37.498;2023-02-03T03:08:49;98930.22;;;-0.29;77.85
65546;BME280;52177;55.968;37.498;2023-02-03T03:09:24;98924.28;;;-0.31;77.77
65546;BME280;52177;55.968;37.498;2023-02-03T03:10:00;98922.63;;;-0.32;77.86
65546;BME280;52177;55.968;37.498;2023-02-03T03:10:32;98916.78;;;-0.36;77.86
65546;BME280;52177;55.968;37.498;2023-02-03T03:11:04;98921.19;;;-0.36;78.12
65546;BME280;52177;55.968;37.498;2023-02-03T03:11:40;98926.44;;;-0.36;78.09
65546;BME280;52177;55.968;37.498;2023-02-03T03:12:16;98919.41;;;-0.36;78.14